Arma, Kansas
Current Conditions -  °F | °C
As of 1:55 AM on Thursday 27 Nov 2014 (Local Time) from KPTS Reporting Station
Broken Clouds Broken Clouds  
Wind Chill: 24°   Ceiling: 2000
Heat Index: 31°   Visibility: 10mi
Dew Point: 24°   Wind: 7mph
Humidity: 75%   Direction: 360°N
Pressure: 30.44"   Gusts: 20mph
Location:  37.54°N, 94.7°W
Report Text: KPTS 270755Z AUTO 36006G17KT 10SM BKN020 M01/M04 A3044 RMK AO2 T10061045
Loading
Personal Weather Stations






























Interactive Weather Map New forecast layout! Learn more

10-Day Weather Forecast

Advertisements
Track Severe Weather on mobile